Time;durP1;ratioP1;P1;durP2;ratioP2;P2;SDS_P1;SDS_P2;PMS_P1;PMS_P2;Temp;Humidity;BMP_temperature;BMP_pressure;BME280_temperature;BME280_humidity;BME280_pressure;Samples;Min_cycle;Max_cycle;Signal;HPM_P1;HPM_P2
2022/12/21 00:01:24;;;;;;;22.50;11.40;;;;;;;9.36;100.00;100618.75;4974830;28;20066;-60
2022/12/21 00:03:55;;;;;;;18.50;10.68;;;;;;;9.36;100.00;100605.50;4975288;28;20047;-60
2022/12/21 00:06:23;;;;;;;17.45;10.93;;;;;;;9.36;100.00;100609.97;4974829;28;20047;-60
2022/12/21 00:08:52;;;;;;;18.40;10.73;;;;;;;9.38;100.00;100618.59;4975169;28;20046;-60
2022/12/21 00:11:21;;;;;;;18.65;10.30;;;;;;;9.33;100.00;100618.19;4975290;28;20050;-60
2022/12/21 00:13:49;;;;;;;19.42;10.52;;;;;;;9.24;100.00;100617.31;4975316;28;20047;-60
2022/12/21 00:16:18;;;;;;;18.33;10.68;;;;;;;9.31;100.00;100615.69;4974641;28;20050;-60
2022/12/21 00:18:46;;;;;;;27.15;12.25;;;;;;;9.28;100.00;100617.81;4975133;28;20408;-60
2022/12/21 00:21:16;;;;;;;22.08;12.15;;;;;;;9.28;100.00;100616.00;4975217;28;20049;-61
2022/12/21 00:23:44;;;;;;;20.60;10.73;;;;;;;9.31;100.00;100612.22;4975192;28;20053;-60
2022/12/21 00:26:13;;;;;;;20.00;11.27;;;;;;;9.31;100.00;100609.56;4974876;28;20072;-60
2022/12/21 00:28:40;;;;;;;21.33;11.13;;;;;;;9.30;100.00;100608.75;4975235;28;20131;-60
2022/12/21 00:31:10;;;;;;;18.15;11.30;;;;;;;9.34;100.00;100599.53;4975033;28;20098;-60
2022/12/21 00:33:38;;;;;;;19.60;11.48;;;;;;;9.35;100.00;100606.50;4973397;28;20050;-60
2022/12/21 00:36:06;;;;;;;17.60;10.18;;;;;;;9.32;100.00;100604.13;4974824;28;20097;-60
2022/12/21 00:38:34;;;;;;;22.98;10.63;;;;;;;9.36;100.00;100604.69;4974818;28;20485;-60
2022/12/21 00:41:04;;;;;;;17.30;10.50;;;;;;;9.37;100.00;100606.34;4974720;28;20046;-61
2022/12/21 00:43:33;;;;;;;20.45;10.27;;;;;;;9.34;100.00;100596.88;4974680;28;20070;-60
2022/12/21 00:46:00;;;;;;;19.52;10.90;;;;;;;9.32;100.00;100598.84;4989607;28;20050;-60
2022/12/21 00:48:29;;;;;;;21.45;10.63;;;;;;;9.33;100.00;100597.03;4975011;28;20440;-60
2022/12/21 00:51:04;;;;;;;16.08;10.32;;;;;;;9.31;100.00;100594.53;4974617;28;20038;-60
2022/12/21 00:53:31;;;;;;;16.67;9.57;;;;;;;9.32;100.00;100603.31;4974781;28;20043;-60
2022/12/21 00:55:59;;;;;;;17.30;10.75;;;;;;;9.25;100.00;100592.47;4973224;28;20100;-61
2022/12/21 00:58:28;;;;;;;25.02;10.18;;;;;;;9.29;100.00;100598.31;4974612;28;20519;-60
2022/12/21 01:00:57;;;;;;;18.75;10.00;;;;;;;9.24;100.00;100596.13;4974147;28;20058;-60
2022/12/21 01:03:26;;;;;;;20.92;11.73;;;;;;;9.26;100.00;100594.16;4974869;28;20129;-61
2022/12/21 01:05:54;;;;;;;15.98;9.93;;;;;;;9.28;100.00;100593.97;4974401;28;20057;-60
2022/12/21 01:08:22;;;;;;;20.15;10.75;;;;;;;9.26;100.00;100601.25;4988780;28;20066;-60
2022/12/21 01:10:49;;;;;;;18.17;11.23;;;;;;;9.22;100.00;100598.91;4972743;28;20043;-60
2022/12/21 01:13:16;;;;;;;17.67;10.43;;;;;;;9.21;100.00;100601.72;4974315;28;20565;-60
2022/12/21 01:15:48;;;;;;;17.80;10.88;;;;;;;9.21;100.00;100618.41;4972981;28;20059;-60
2022/12/21 01:18:15;;;;;;;19.88;11.10;;;;;;;9.14;100.00;100621.81;4971445;28;20047;-60
2022/12/21 01:20:46;;;;;;;22.23;12.02;;;;;;;9.20;100.00;100626.50;4973724;28;20048;-60
2022/12/21 01:23:15;;;;;;;22.30;11.50;;;;;;;9.18;100.00;100633.75;4974079;28;20043;-61
2022/12/21 01:25:43;;;;;;;21.92;11.48;;;;;;;9.27;100.00;100626.75;4974573;28;20050;-60
2022/12/21 01:28:10;;;;;;;22.80;12.30;;;;;;;9.19;100.00;100630.97;4974186;28;20409;-60
2022/12/21 01:30:39;;;;;;;20.23;12.93;;;;;;;9.18;100.00;100631.94;4974064;28;20043;-60
2022/12/21 01:33:08;;;;;;;21.90;12.15;;;;;;;9.17;100.00;100630.28;4972996;28;20046;-60
2022/12/21 01:35:39;;;;;;;24.88;12.90;;;;;;;9.19;100.00;100633.63;4973871;28;20481;-60
2022/12/21 01:38:06;;;;;;;22.42;13.18;;;;;;;9.15;100.00;100644.63;4974181;28;20135;-60
2022/12/21 01:40:33;;;;;;;25.23;14.32;;;;;;;9.16;100.00;100639.19;4973784;28;20042;-61
2022/12/21 01:43:15;;;;;;;26.45;14.55;;;;;;;9.17;100.00;100637.41;4974319;28;20047;-60
2022/12/21 01:45:42;;;;;;;25.65;14.20;;;;;;;9.18;100.00;100639.88;4973063;28;20047;-60
2022/12/21 01:48:15;;;;;;;25.80;15.10;;;;;;;9.17;100.00;100632.94;4972883;28;20101;-61
2022/12/21 01:50:55;;;;;;;27.15;15.65;;;;;;;9.11;100.00;100630.84;4974063;28;20062;-60
2022/12/21 01:53:28;;;;;;;27.73;14.80;;;;;;;9.17;100.00;100634.75;4972952;28;20053;-60
2022/12/21 01:55:57;;;;;;;25.52;15.00;;;;;;;9.18;100.00;100639.03;4957122;28;20511;-60
2022/12/21 01:58:27;;;;;;;25.48;14.30;;;;;;;9.16;100.00;100643.66;4974073;28;20404;-62
2022/12/21 02:00:57;;;;;;;29.83;15.90;;;;;;;9.15;100.00;100640.19;4972825;28;20043;-60
2022/12/21 02:03:29;;;;;;;31.70;16.90;;;;;;;9.15;100.00;100634.03;4988400;28;20493;-60
2022/12/21 02:06:08;;;;;;;30.50;16.45;;;;;;;9.16;100.00;100630.44;4987736;28;20042;-60
2022/12/21 02:08:35;;;;;;;34.53;15.82;;;;;;;9.15;100.00;100620.81;4973750;28;20580;-60
2022/12/21 02:11:05;;;;;;;28.35;16.55;;;;;;;9.12;100.00;100629.06;4988891;28;20055;-60
2022/12/21 02:13:32;;;;;;;32.10;16.90;;;;;;;9.09;100.00;100626.69;4973911;28;20507;-60
2022/12/21 02:18:50;;;;;;;33.42;17.30;;;;;;;9.14;100.00;100622.63;5111111;27;20899;-61
2022/12/21 02:21:21;;;;;;;;;;;;;;;9.16;100.00;100633.91;5111591;28;20040;-60
2022/12/21 02:32:59;;;;;;;36.33;18.33;;;;;;;9.06;100.00;100638.44;5110918;27;20343;-59
2022/12/21 02:35:45;;;;;;;39.40;18.70;;;;;;;9.00;100.00;100633.69;5110992;28;20055;-59
2022/12/21 02:38:41;;;;;;;36.00;18.83;;;;;;;9.05;100.00;100636.75;5109628;28;20085;-60
2022/12/21 02:44:16;;;;;;;36.08;18.75;;;;;;;8.94;100.00;100639.59;5111260;27;20849;-60
2022/12/21 02:47:11;;;;;;;39.53;19.27;;;;;;;8.95;100.00;100636.81;5109490;28;20044;-60
2022/12/21 02:50:02;;;;;;;35.83;19.08;;;;;;;8.96;100.00;100632.34;5111031;28;20056;-60
2022/12/21 02:52:53;;;;;;;34.55;18.48;;;;;;;9.00;100.00;100628.41;5110063;28;20043;-60
2022/12/21 02:55:25;;;;;;;38.15;18.52;;;;;;;9.02;100.00;100631.72;5110519;28;20135;-60
2022/12/21 03:04:04;;;;;;;36.13;18.45;;;;;;;8.79;100.00;100632.13;5090217;27;20344;-60
2022/12/21 03:07:11;;;;;;;40.85;18.75;;;;;;;8.87;100.00;100625.28;5089674;28;20044;-59
2022/12/21 03:10:08;;;;;;;45.78;20.00;;;;;;;8.78;100.00;100630.44;5090597;28;20503;-60
2022/12/21 03:12:53;;;;;;;37.80;18.40;;;;;;;8.80;100.00;100622.38;5089113;28;20044;-60
2022/12/21 03:15:35;;;;;;;45.47;20.38;;;;;;;8.79;100.00;100621.53;5090646;28;20058;-59
2022/12/21 03:21:01;;;;;;;39.58;19.70;;;;;;;8.87;100.00;100607.59;5113441;27;20023;-60
2022/12/21 03:23:38;;;;;;;42.67;19.38;;;;;;;8.92;100.00;100599.22;5093734;28;20048;-60
2022/12/21 03:26:31;;;;;;;39.75;19.63;;;;;;;8.96;100.00;100598.75;5110957;28;20100;-60
2022/12/21 03:28:59;;;;;;;42.95;18.52;;;;;;;8.96;100.00;100598.75;5110587;28;20580;-60
2022/12/21 03:31:34;;;;;;;48.55;20.45;;;;;;;8.97;100.00;100605.72;5092644;28;20050;-60
2022/12/21 03:34:09;;;;;;;48.80;19.25;;;;;;;8.98;100.00;100603.91;5072795;28;20048;-60
2022/12/21 03:36:43;;;;;;;43.50;19.55;;;;;;;9.04;100.00;100606.00;5072622;28;20497;-60
2022/12/21 03:39:14;;;;;;;44.03;19.75;;;;;;;8.99;100.00;100598.47;5090363;28;20041;-60
2022/12/21 03:41:53;;;;;;;44.20;19.65;;;;;;;9.00;100.00;100596.66;5072551;28;20046;-60
2022/12/21 03:44:27;;;;;;;54.65;20.05;;;;;;;9.02;100.00;100598.19;5073280;28;20040;-60
2022/12/21 03:46:59;;;;;;;46.30;19.30;;;;;;;9.03;100.00;100599.84;5072965;28;20052;-61
2022/12/21 03:49:34;;;;;;;40.33;19.15;;;;;;;9.00;100.00;100597.50;5090527;28;20045;-61
2022/12/21 03:52:13;;;;;;;45.10;18.70;;;;;;;9.01;100.00;100587.75;5090286;28;20058;-61
2022/12/21 03:54:48;;;;;;;43.60;19.98;;;;;;;8.99;100.00;100587.91;5072504;28;20566;-61
2022/12/21 03:57:16;;;;;;;44.75;19.27;;;;;;;9.02;100.00;100584.09;5072084;28;20072;-61
2022/12/21 03:59:48;;;;;;;40.03;17.95;;;;;;;9.01;100.00;100579.81;5089806;28;20122;-61
2022/12/21 04:02:27;;;;;;;42.17;18.42;;;;;;;9.00;100.00;100575.50;5072290;28;20497;-61
2022/12/21 04:05:01;;;;;;;44.55;18.17;;;;;;;8.97;100.00;100571.34;5103988;28;20048;-61
2022/12/21 04:07:29;;;;;;;43.97;17.70;;;;;;;8.98;100.00;100572.16;5109520;28;20545;-61
2022/12/21 04:09:59;;;;;;;41.67;17.27;;;;;;;8.97;100.00;100566.03;5110156;28;20043;-61
2022/12/21 04:12:43;;;;;;;43.47;17.50;;;;;;;9.00;100.00;100560.47;5110246;28;20043;-59
2022/12/21 04:15:16;;;;;;;51.42;18.95;;;;;;;9.03;100.00;100557.50;5094264;28;20055;-59
2022/12/21 04:17:47;;;;;;;45.75;17.67;;;;;;;9.05;100.00;100559.19;5110194;28;20052;-61
2022/12/21 04:20:18;;;;;;;43.40;16.33;;;;;;;9.02;100.00;100552.34;5109476;28;20047;-59
2022/12/21 04:28:28;;;;;;;45.47;17.38;;;;;;;9.06;100.00;100550.25;5091609;28;20085;-59
2022/12/21 04:31:15;;;;;;;38.58;17.67;;;;;;;9.05;100.00;100556.53;5086031;28;20070;-60
2022/12/21 04:33:42;;;;;;;42.67;18.23;;;;;;;9.01;100.00;100558.66;5077873;28;20044;-60
2022/12/21 04:38:55;;;;;;;36.45;16.75;;;;;;;8.96;100.00;100558.25;5095794;28;20105;-60
2022/12/21 04:41:22;;;;;;;42.22;17.80;;;;;;;8.99;100.00;100564.09;5095924;28;20188;-60
2022/12/21 04:43:49;;;;;;;46.60;18.60;;;;;;;8.98;100.00;100569.50;5077858;28;20037;-60
2022/12/21 04:46:16;;;;;;;40.85;17.83;;;;;;;8.96;100.00;100559.06;5054961;28;20052;-60
2022/12/21 04:48:45;;;;;;;37.08;16.88;;;;;;;8.96;100.00;100555.59;5077724;28;20541;-60
2022/12/21 04:51:14;;;;;;;36.35;17.63;;;;;;;9.00;100.00;100559.63;5078013;28;20044;-60
2022/12/21 04:53:41;;;;;;;41.25;17.60;;;;;;;8.96;100.00;100556.44;5077907;28;20036;-60
2022/12/21 04:56:09;;;;;;;41.08;16.80;;;;;;;8.97;100.00;100566.03;5060860;28;20142;-60
2022/12/21 04:58:37;;;;;;;37.63;17.33;;;;;;;9.01;100.00;100566.59;5095460;28;20040;-60
2022/12/21 05:01:13;;;;;;;38.95;17.20;;;;;;;8.98;100.00;100570.34;5095450;28;20507;-60
2022/12/21 05:03:41;;;;;;;35.00;16.42;;;;;;;9.01;100.00;100563.94;5077447;28;20079;-65
2022/12/21 05:06:09;;;;;;;39.15;17.45;;;;;;;9.00;100.00;100562.25;5095208;28;20048;-60
2022/12/21 05:08:36;;;;;;;39.53;17.17;;;;;;;8.98;100.00;100565.03;5095082;28;20056;-60
2022/12/21 05:11:16;;;;;;;33.88;16.58;;;;;;;9.00;100.00;100560.47;5095305;28;20036;-60
2022/12/21 05:13:44;;;;;;;34.60;16.70;;;;;;;9.02;100.00;100561.16;5095241;28;20051;-60
2022/12/21 05:16:14;;;;;;;44.20;17.27;;;;;;;8.95;100.00;100559.22;5095390;28;20098;-60
2022/12/21 05:18:41;;;;;;;38.03;17.33;;;;;;;8.91;100.00;100555.22;5060292;28;20405;-60
2022/12/21 05:21:08;;;;;;;36.13;17.15;;;;;;;8.94;100.00;100561.03;5056058;28;20043;-60
2022/12/21 05:23:35;;;;;;;34.97;17.20;;;;;;;8.96;100.00;100556.44;5094745;28;20074;-60
2022/12/21 05:26:03;;;;;;;39.63;17.38;;;;;;;8.95;100.00;100568.00;5094949;28;20051;-61
2022/12/21 05:28:34;;;;;;;37.60;16.98;;;;;;;8.96;100.00;100563.53;5094504;28;20409;-60
2022/12/21 05:31:03;;;;;;;34.90;16.25;;;;;;;8.98;100.00;100557.09;5094801;28;20062;-60
2022/12/21 05:33:30;;;;;;;36.58;17.73;;;;;;;8.99;100.00;100552.69;5076614;28;20109;-60
2022/12/21 05:36:01;;;;;;;36.15;16.60;;;;;;;9.01;100.00;100558.66;5076505;28;20043;-60
2022/12/21 05:38:27;;;;;;;29.02;16.05;;;;;;;9.00;100.00;100562.25;5076714;28;20048;-60
2022/12/21 05:40:54;;;;;;;31.65;15.48;;;;;;;8.98;100.00;100559.75;5060072;28;20055;-60
2022/12/21 05:43:21;;;;;;;32.72;16.67;;;;;;;9.01;100.00;100558.66;5059076;28;20047;-60
2022/12/21 05:45:49;;;;;;;39.88;17.02;;;;;;;9.02;100.00;100561.16;5059797;28;20051;-60
2022/12/21 05:48:16;;;;;;;33.47;16.73;;;;;;;8.97;100.00;100560.75;5094747;28;20048;-59
2022/12/21 05:50:43;;;;;;;37.45;16.95;;;;;;;8.97;100.00;100555.47;5094765;28;20543;-60
2022/12/21 05:53:10;;;;;;;32.63;15.93;;;;;;;8.98;100.00;100540.41;5094717;28;20048;-60
2022/12/21 05:55:43;;;;;;;36.50;16.27;;;;;;;8.97;100.00;100534.28;5060712;28;20040;-60
2022/12/21 05:58:10;;;;;;;32.78;16.48;;;;;;;8.97;100.00;100539.59;5060348;28;20044;-60
2022/12/21 06:00:37;;;;;;;37.03;17.30;;;;;;;9.01;100.00;100529.53;5094519;28;20098;-61
2022/12/21 06:03:04;;;;;;;34.85;16.35;;;;;;;8.99;100.00;100528.88;5094467;28;20047;-61
2022/12/21 06:05:34;;;;;;;33.70;15.73;;;;;;;9.01;100.00;100529.53;5094134;28;20072;-60
2022/12/21 06:08:01;;;;;;;30.65;15.30;;;;;;;9.00;100.00;100536.66;5093624;28;20131;-60
2022/12/21 06:10:27;;;;;;;39.00;16.25;;;;;;;9.00;100.00;100538.44;5094077;28;20066;-61
2022/12/21 06:12:54;;;;;;;36.53;16.90;;;;;;;9.00;100.00;100535.81;5094574;28;20084;-61
2022/12/21 06:15:21;;;;;;;32.63;15.68;;;;;;;9.01;100.00;100537.47;5059047;28;20044;-61
2022/12/21 06:17:48;;;;;;;34.45;16.52;;;;;;;8.99;100.00;100532.34;5094029;28;20112;-61
2022/12/21 06:20:16;;;;;;;39.30;18.08;;;;;;;8.95;100.00;100533.63;5072064;28;20053;-61
2022/12/21 06:22:43;;;;;;;33.83;17.25;;;;;;;8.97;100.00;100531.66;5072752;28;20052;-61
2022/12/21 06:25:09;;;;;;;37.30;18.40;;;;;;;8.98;100.00;100535.94;5073451;28;20041;-61
2022/12/21 06:27:36;;;;;;;37.17;17.63;;;;;;;8.99;100.00;100532.34;5072269;28;20052;-61
2022/12/21 06:30:03;;;;;;;37.85;17.45;;;;;;;9.04;100.00;100542.47;5073582;28;20454;-61
2022/12/21 06:32:30;;;;;;;35.88;17.35;;;;;;;9.03;100.00;100541.63;5073091;28;20047;-60
2022/12/21 06:34:57;;;;;;;34.00;18.10;;;;;;;9.01;100.00;100543.59;5073652;28;20048;-60
2022/12/21 06:37:23;;;;;;;37.47;17.40;;;;;;;8.99;100.00;100536.81;5072020;28;20064;-60
2022/12/21 06:39:50;;;;;;;39.20;18.17;;;;;;;9.01;100.00;100542.78;5073617;28;20037;-61
2022/12/21 06:42:17;;;;;;;41.63;18.95;;;;;;;9.02;100.00;100539.13;5073187;28;20513;-60
2022/12/21 06:44:43;;;;;;;42.65;19.48;;;;;;;8.97;100.00;100542.22;5072555;28;20075;-61
2022/12/21 06:47:10;;;;;;;36.17;18.30;;;;;;;8.86;100.00;100539.81;5073167;28;20052;-60
2022/12/21 06:49:37;;;;;;;35.83;16.65;;;;;;;8.79;100.00;100542.19;5055627;28;20094;-61
2022/12/21 06:52:06;;;;;;;31.60;16.60;;;;;;;8.86;100.00;100546.88;5055824;28;20041;-61
2022/12/21 06:54:33;;;;;;;30.15;15.95;;;;;;;8.85;100.00;100556.63;5072838;28;20047;-61
2022/12/21 06:56:59;;;;;;;31.33;15.90;;;;;;;8.91;100.00;100555.22;5072966;28;20036;-61
2022/12/21 06:59:26;;;;;;;26.52;14.98;;;;;;;8.89;100.00;100544.78;5071727;28;20051;-61
2022/12/21 07:01:53;;;;;;;28.58;15.18;;;;;;;8.90;100.00;100535.03;5073162;28;20068;-61
2022/12/21 07:04:20;;;;;;;27.00;14.18;;;;;;;8.93;100.00;100530.28;5073417;28;20127;-62
2022/12/21 07:06:48;;;;;;;27.17;15.15;;;;;;;8.98;100.00;100543.06;5069289;28;20048;-61
2022/12/21 07:09:15;;;;;;;28.10;15.13;;;;;;;8.94;100.00;100554.94;5067334;28;20045;-61
2022/12/21 07:11:42;;;;;;;28.42;14.20;;;;;;;8.95;100.00;100548.63;5052515;28;20052;-61
2022/12/21 07:14:09;;;;;;;23.95;13.40;;;;;;;8.89;100.00;100552.72;5052030;28;20041;-61
2022/12/21 07:16:36;;;;;;;28.25;13.77;;;;;;;8.78;100.00;100555.56;5052761;28;20123;-61
2022/12/21 07:19:03;;;;;;;25.40;13.75;;;;;;;8.81;100.00;100548.16;5058012;28;20060;-61
2022/12/21 07:21:30;;;;;;;28.02;14.02;;;;;;;8.85;100.00;100548.69;5060702;28;20032;-61
2022/12/21 07:23:57;;;;;;;24.70;12.98;;;;;;;8.89;100.00;100549.25;5092762;28;20044;-61
2022/12/21 07:26:24;;;;;;;25.50;12.85;;;;;;;8.91;100.00;100548.09;5058995;28;20044;-62
2022/12/21 07:28:53;;;;;;;26.02;13.68;;;;;;;8.89;100.00;100546.59;5092747;28;20036;-61
2022/12/21 07:31:23;;;;;;;26.85;13.77;;;;;;;8.83;100.00;100553.31;5075235;28;20444;-61
2022/12/21 07:33:51;;;;;;;22.25;11.70;;;;;;;8.81;100.00;100560.56;5054778;28;20064;-61
2022/12/21 07:36:18;;;;;;;24.48;11.45;;;;;;;8.67;100.00;100564.50;5072600;28;20048;-61
2022/12/21 07:38:45;;;;;;;23.63;10.95;;;;;;;8.71;100.00;100573.81;5073073;28;20044;-61
2022/12/21 07:41:15;;;;;;;27.75;12.40;;;;;;;8.75;100.00;100572.56;5072599;28;20443;-61
2022/12/21 07:43:43;;;;;;;23.27;12.48;;;;;;;8.72;100.00;100570.19;5054961;28;20482;-61
2022/12/21 07:46:23;;;;;;;24.15;13.10;;;;;;;8.80;100.00;100577.41;5072863;28;20048;-61
2022/12/21 07:48:52;;;;;;;27.98;12.77;;;;;;;8.70;100.00;100577.44;5072480;28;20037;-61
2022/12/21 07:51:19;;;;;;;24.65;12.70;;;;;;;8.74;100.00;100584.09;5072397;28;20047;-61
2022/12/21 07:53:47;;;;;;;25.42;13.75;;;;;;;8.66;100.00;100578.72;5072666;28;20052;-62
2022/12/21 07:56:17;;;;;;;23.85;13.20;;;;;;;8.70;100.00;100582.75;5054802;28;20486;-61
2022/12/21 07:58:45;;;;;;;23.40;12.63;;;;;;;8.78;100.00;100579.38;5055344;28;20101;-61
2022/12/21 08:01:16;;;;;;;26.73;13.45;;;;;;;8.89;100.00;100591.56;5054613;28;20051;-61
2022/12/21 08:03:45;;;;;;;29.90;13.27;;;;;;;8.85;100.00;100596.31;5076381;28;20040;-61
2022/12/21 08:06:13;;;;;;;30.88;14.43;;;;;;;8.79;100.00;100603.03;5093594;28;20405;-61
2022/12/21 08:08:40;;;;;;;27.50;13.32;;;;;;;8.78;100.00;100604.00;5095976;28;20067;-61
2022/12/21 08:11:13;;;;;;;26.50;12.82;;;;;;;8.78;100.00;100608.47;5078502;28;20085;-62
2022/12/21 08:13:41;;;;;;;26.13;13.43;;;;;;;8.75;100.00;100603.44;5096643;28;20044;-61
2022/12/21 08:16:10;;;;;;;32.80;14.68;;;;;;;8.70;100.00;100598.59;5096435;28;20051;-62
2022/12/21 08:18:37;;;;;;;29.38;14.20;;;;;;;8.75;100.00;100596.38;5078646;28;20181;-61
2022/12/21 08:21:04;;;;;;;26.92;14.05;;;;;;;8.75;100.00;100593.72;5078087;28;20063;-63
2022/12/21 08:23:31;;;;;;;29.73;14.40;;;;;;;8.80;100.00;100587.97;5078681;28;20044;-62
2022/12/21 08:26:01;;;;;;;30.48;14.20;;;;;;;8.70;100.00;100597.78;5078358;28;20059;-61
2022/12/21 08:28:28;;;;;;;28.02;14.45;;;;;;;8.68;100.00;100605.88;5096734;28;20048;-61
2022/12/21 08:31:14;;;;;;;28.92;14.35;;;;;;;8.74;100.00;100605.28;5096085;28;20047;-61
2022/12/21 08:33:42;;;;;;;28.05;14.82;;;;;;;8.81;100.00;100611.66;5095923;28;20047;-61
2022/12/21 08:36:13;;;;;;;34.90;14.45;;;;;;;8.91;100.00;100593.06;5077842;28;20057;-62
2022/12/21 08:38:40;;;;;;;30.63;14.25;;;;;;;8.95;100.00;100602.41;5078750;28;20397;-61
2022/12/21 08:41:27;;;;;;;26.98;14.40;;;;;;;8.96;100.00;100614.63;5081155;28;20056;-61
2022/12/21 08:43:54;;;;;;;31.35;14.30;;;;;;;9.05;100.00;100614.75;5095924;28;20075;-61
2022/12/21 08:46:21;;;;;;;29.23;14.85;;;;;;;9.11;100.00;100606.22;5078066;28;20164;-61
2022/12/21 08:48:49;;;;;;;32.88;14.25;;;;;;;9.15;100.00;100612.88;5095707;28;20071;-61
2022/12/21 08:51:15;;;;;;;32.90;14.40;;;;;;;9.16;100.00;100609.25;5078291;28;20135;-62
2022/12/21 08:53:42;;;;;;;29.00;14.27;;;;;;;9.08;100.00;100617.94;5095436;28;20044;-61
2022/12/21 08:56:13;;;;;;;32.65;14.55;;;;;;;9.04;100.00;100616.56;5095993;28;20095;-61
2022/12/21 08:58:39;;;;;;;41.78;14.10;;;;;;;8.99;100.00;100618.81;5077894;28;20051;-62
2022/12/21 09:01:06;;;;;;;46.47;17.13;;;;;;;9.10;100.00;100617.78;5089920;28;20050;-60
2022/12/21 09:03:33;;;;;;;43.05;14.52;;;;;;;9.02;100.00;100616.72;5091552;28;20042;-60
2022/12/21 09:06:03;;;;;;;39.33;17.33;;;;;;;9.05;100.00;100627.97;5064060;28;20043;-60
2022/12/21 09:08:34;;;;;;;47.60;15.55;;;;;;;9.07;100.00;100628.66;5077430;28;20105;-60
2022/12/21 09:11:02;;;;;;;41.50;16.88;;;;;;;9.09;100.00;100632.81;5093202;28;20489;-60
2022/12/21 09:13:29;;;;;;;44.72;14.23;;;;;;;9.12;100.00;100632.53;5072768;28;20129;-60
2022/12/21 09:15:56;;;;;;;47.67;16.77;;;;;;;9.09;100.00;100640.75;5076220;28;20056;-60
2022/12/21 09:18:23;;;;;;;51.47;19.80;;;;;;;9.18;100.00;100639.03;5076814;28;20044;-60
2022/12/21 09:20:50;;;;;;;54.03;16.83;;;;;;;9.14;100.00;100649.09;5074213;28;20048;-60
2022/12/21 09:23:16;;;;;;;60.63;16.45;;;;;;;8.95;100.00;100638.59;5083475;28;20059;-60
2022/12/21 09:25:43;;;;;;;45.75;15.35;;;;;;;8.69;100.00;100656.94;5064782;28;20584;-60
2022/12/21 09:28:10;;;;;;;60.45;16.67;;;;;;;8.55;100.00;100652.94;5092102;28;20045;-62
2022/12/21 09:30:37;;;;;;;58.60;17.60;;;;;;;8.54;100.00;100662.66;5074945;28;20024;-62
2022/12/21 09:33:03;;;;;;;62.05;19.23;;;;;;;8.53;100.00;100666.31;5074823;28;20048;-62
2022/12/21 09:35:30;;;;;;;63.92;21.52;;;;;;;8.59;100.00;100672.84;5053168;28;20371;-60
2022/12/21 09:37:57;;;;;;;62.60;20.42;;;;;;;8.62;100.00;100665.44;5072731;28;20105;-60
2022/12/21 09:40:24;;;;;;;61.67;20.55;;;;;;;8.63;100.00;100664.47;5053680;28;20436;-61
2022/12/21 09:43:31;;;;;;;64.13;22.27;;;;;;;8.56;100.00;100667.81;5040250;28;20041;-61
2022/12/21 09:48:40;;;;;;;63.70;21.40;;;;;;;8.43;100.00;100663.66;5123428;27;20133;-60
2022/12/21 09:51:18;;;;;;;65.55;20.35;;;;;;;8.48;100.00;100678.25;5088557;28;20119;-60
2022/12/21 09:53:52;;;;;;;63.60;21.35;;;;;;;8.48;100.00;100675.63;5102324;28;20048;-60
2022/12/21 09:56:25;;;;;;;62.20;20.48;;;;;;;8.57;100.00;100677.44;5086975;28;20059;-60
2022/12/21 09:58:54;;;;;;;53.65;19.92;;;;;;;8.78;100.00;100678.06;5108688;28;20894;-61
2022/12/21 10:01:42;;;;;;;49.95;18.60;;;;;;;8.72;100.00;100678.63;5090989;28;20071;-61
2022/12/21 10:04:25;;;;;;;50.05;18.83;;;;;;;8.68;100.00;100681.69;5113763;28;20044;-61
2022/12/21 10:10:01;;;;;;;51.60;17.60;;;;;;;8.64;100.00;100699.66;5124628;27;20406;-61
2022/12/21 10:12:55;;;;;;;45.50;16.60;;;;;;;8.60;100.00;100687.72;5089618;28;20546;-61
2022/12/21 10:15:52;;;;;;;43.88;17.77;;;;;;;8.59;100.00;100688.69;5103002;28;20048;-61
2022/12/21 10:18:48;;;;;;;35.70;14.98;;;;;;;8.55;100.00;100697.88;5109168;28;20746;-61
2022/12/21 10:21:43;;;;;;;38.42;14.15;;;;;;;8.41;100.00;100699.13;5086396;28;20044;-61
2022/12/21 10:24:20;;;;;;;41.33;15.43;;;;;;;8.32;100.00;100703.44;5108651;28;20425;-60
2022/12/21 10:26:51;;;;;;;38.47;15.98;;;;;;;8.39;100.00;100698.44;5082346;28;20405;-58
2022/12/21 10:29:27;;;;;;;45.38;15.95;;;;;;;8.44;100.00;100699.72;5107065;28;20040;-60
2022/12/21 10:31:54;;;;;;;41.55;15.93;;;;;;;8.57;100.00;100696.78;5097497;28;20044;-59
2022/12/21 10:34:31;;;;;;;39.17;15.75;;;;;;;8.48;100.00;100713.47;5103920;28;20036;-58
2022/12/21 10:37:05;;;;;;;38.38;15.45;;;;;;;8.42;100.00;100724.59;5087363;28;20040;-59
2022/12/21 10:39:32;;;;;;;34.58;13.95;;;;;;;8.32;100.00;100719.31;5104537;28;20036;-59
2022/12/21 10:42:12;;;;;;;35.53;14.45;;;;;;;8.28;100.00;100720.56;5095583;28;20047;-60
2022/12/21 10:44:40;;;;;;;34.85;13.73;;;;;;;8.27;100.00;100717.06;5111005;27;20527;-59
2022/12/21 10:47:15;;;;;;;40.03;14.23;;;;;;;8.36;100.00;100696.06;5099985;28;20040;-59
2022/12/21 10:50:04;;;;;;;36.35;12.65;;;;;;;8.38;100.00;100704.69;5106349;28;20051;-59
2022/12/21 10:52:40;;;;;;;37.00;13.30;;;;;;;8.50;100.00;100700.13;5091388;27;20044;-59
2022/12/21 10:58:20;;;;;;;38.38;12.40;;;;;;;8.66;100.00;100697.72;5150354;27;20421;-60
2022/12/21 11:00:56;;;;;;;38.78;12.95;;;;;;;8.73;100.00;100690.91;5116502;27;21056;-60
2022/12/21 11:03:31;;;;;;;31.70;13.48;;;;;;;8.65;100.00;100706.63;5133183;27;20047;-60
2022/12/21 11:06:12;;;;;;;29.80;13.18;;;;;;;8.61;100.00;100694.69;5127232;27;20122;-60
2022/12/21 11:08:45;;;;;;;29.02;13.30;;;;;;;8.55;100.00;100703.16;5115388;28;20054;-65
2022/12/21 11:11:28;;;;;;;32.95;13.30;;;;;;;8.67;100.00;100693.28;5105435;27;20500;-65
2022/12/21 11:14:13;;;;;;;31.52;11.98;;;;;;;8.88;100.00;100688.63;5139607;27;20035;-64
2022/12/21 11:16:40;;;;;;;31.33;12.45;;;;;;;8.98;100.00;100694.69;5105859;27;20778;-65
2022/12/21 11:19:11;;;;;;;30.52;12.00;;;;;;;9.02;100.00;100687.31;5138479;27;20039;-64
2022/12/21 11:21:45;;;;;;;30.55;11.77;;;;;;;9.43;100.00;100690.47;5108944;27;20733;-65
2022/12/21 11:24:17;;;;;;;24.83;10.27;;;;;;;9.24;100.00;100683.47;5146079;27;20043;-65
2022/12/21 11:26:49;;;;;;;25.23;10.70;;;;;;;9.43;100.00;100682.53;5125647;27;20427;-65
2022/12/21 11:29:21;;;;;;;26.17;9.98;;;;;;;9.57;98.75;100683.84;5148188;27;20053;-64
2022/12/21 11:31:49;;;;;;;30.02;10.15;;;;;;;9.88;98.64;100688.81;5126834;27;20111;-65
2022/12/21 11:34:39;;;;;;;25.08;9.88;;;;;;;10.09;98.48;100678.72;5149312;27;20066;-64
2022/12/21 11:37:22;;;;;;;28.15;8.85;;;;;;;10.14;96.01;100684.41;5105938;27;20046;-65
2022/12/21 11:39:50;;;;;;;24.77;8.93;;;;;;;10.14;95.31;100695.00;5135622;27;20452;-65
2022/12/21 11:42:20;;;;;;;28.17;8.90;;;;;;;10.00;96.00;100684.94;5109363;27;20047;-67
2022/12/21 11:44:51;;;;;;;27.52;9.98;;;;;;;9.67;97.50;100679.31;5132899;27;20043;-65
2022/12/21 11:47:31;;;;;;;31.00;10.30;;;;;;;9.51;98.01;100677.31;5079069;28;20051;-66
2022/12/21 11:50:39;;;;;;;35.90;9.60;;;;;;;9.57;98.79;100681.22;5095161;28;20142;-64
2022/12/21 11:53:18;;;;;;;29.02;8.48;;;;;;;9.53;97.49;100685.09;5112134;27;20046;-62
2022/12/21 11:56:04;;;;;;;23.65;7.70;;;;;;;9.15;98.77;100685.19;5132795;27;20447;-63
2022/12/21 11:58:47;;;;;;;24.13;8.57;;;;;;;9.38;99.27;100695.38;5136060;27;20043;-63
2022/12/21 12:04:29;;;;;;;29.85;7.80;;;;;;;9.30;98.43;100682.88;5111401;27;20475;-63
2022/12/21 12:07:24;;;;;;;35.33;7.18;;;;;;;9.13;99.18;100679.19;5075605;28;20048;-58
2022/12/21 12:10:03;;;;;;;30.30;6.20;;;;;;;8.84;98.46;100688.06;5070148;28;20068;-58
2022/12/21 12:13:09;;;;;;;24.67;5.68;;;;;;;8.73;98.87;100693.53;5069817;28;20047;-58
2022/12/21 12:15:48;;;;;;;23.83;6.22;;;;;;;8.53;100.00;100687.47;5060321;28;20489;-60